sensor_id;sensor_type;location;lat;lon;timestamp;temperature;humidity
64226;DHT22;50545;56.064;26.178;2023-11-21T00:01:34;-4.40;99.90
64226;DHT22;50545;56.064;26.178;2023-11-21T00:04:02;-4.40;99.90
64226;DHT22;50545;56.064;26.178;2023-11-21T00:06:29;-4.40;99.90
64226;DHT22;50545;56.064;26.178;2023-11-21T00:08:57;-4.40;99.90
64226;DHT22;50545;56.064;26.178;2023-11-21T00:11:24;-4.30;99.90
64226;DHT22;50545;56.064;26.178;2023-11-21T00:13:56;-4.30;99.90
64226;DHT22;50545;56.064;26.178;2023-11-21T00:16:24;-4.30;99.90
64226;DHT22;50545;56.064;26.178;2023-11-21T00:18:52;-4.20;99.90
64226;DHT22;50545;56.064;26.178;2023-11-21T00:21:20;-4.20;99.90
64226;DHT22;50545;56.064;26.178;2023-11-21T00:23:47;-4.20;99.90
64226;DHT22;50545;56.064;26.178;2023-11-21T00:26:15;-4.10;99.90
64226;DHT22;50545;56.064;26.178;2023-11-21T00:28:43;-4.10;99.90
64226;DHT22;50545;56.064;26.178;2023-11-21T00:31:10;-4.10;99.90
64226;DHT22;50545;56.064;26.178;2023-11-21T00:33:38;-4.10;99.90
64226;DHT22;50545;56.064;26.178;2023-11-21T00:36:06;-4.00;99.90
64226;DHT22;50545;56.064;26.178;2023-11-21T00:38:37;-4.10;99.90
64226;DHT22;50545;56.064;26.178;2023-11-21T00:41:07;-4.00;99.90
64226;DHT22;50545;56.064;26.178;2023-11-21T00:43:34;-4.00;99.90
64226;DHT22;50545;56.064;26.178;2023-11-21T00:46:06;-4.00;99.90
64226;DHT22;50545;56.064;26.178;2023-11-21T00:48:36;-4.00;99.90
64226;DHT22;50545;56.064;26.178;2023-11-21T00:51:03;-4.00;99.90
64226;DHT22;50545;56.064;26.178;2023-11-21T00:53:33;-4.00;99.90
64226;DHT22;50545;56.064;26.178;2023-11-21T00:56:00;-4.00;99.90
64226;DHT22;50545;56.064;26.178;2023-11-21T00:58:28;-4.00;99.90
64226;DHT22;50545;56.064;26.178;2023-11-21T01:00:56;-4.00;99.90
64226;DHT22;50545;56.064;26.178;2023-11-21T01:03:25;-4.00;99.90
64226;DHT22;50545;56.064;26.178;2023-11-21T01:05:52;-4.00;99.90
64226;DHT22;50545;56.064;26.178;2023-11-21T01:08:20;-4.00;99.90
64226;DHT22;50545;56.064;26.178;2023-11-21T01:10:48;-4.00;99.90
64226;DHT22;50545;56.064;26.178;2023-11-21T01:13:16;-4.00;99.90
64226;DHT22;50545;56.064;26.178;2023-11-21T01:15:44;-4.00;99.90
64226;DHT22;50545;56.064;26.178;2023-11-21T01:18:11;-4.10;99.90
64226;DHT22;50545;56.064;26.178;2023-11-21T01:20:39;-4.10;99.90
64226;DHT22;50545;56.064;26.178;2023-11-21T01:23:07;-4.10;99.90
64226;DHT22;50545;56.064;26.178;2023-11-21T01:25:34;-4.10;99.90
64226;DHT22;50545;56.064;26.178;2023-11-21T01:28:03;-4.20;99.90
64226;DHT22;50545;56.064;26.178;2023-11-21T01:30:31;-4.20;99.90
64226;DHT22;50545;56.064;26.178;2023-11-21T01:32:59;-4.30;99.90
64226;DHT22;50545;56.064;26.178;2023-11-21T01:35:27;-4.40;99.90
64226;DHT22;50545;56.064;26.178;2023-11-21T01:37:55;-4.40;99.90
64226;DHT22;50545;56.064;26.178;2023-11-21T01:40:22;-4.40;99.90
64226;DHT22;50545;56.064;26.178;2023-11-21T01:42:50;-4.40;99.90
64226;DHT22;50545;56.064;26.178;2023-11-21T01:45:17;-4.40;99.90
64226;DHT22;50545;56.064;26.178;2023-11-21T01:47:45;-4.40;99.90
64226;DHT22;50545;56.064;26.178;2023-11-21T01:50:16;-4.40;99.90
64226;DHT22;50545;56.064;26.178;2023-11-21T01:52:46;-4.40;99.90
64226;DHT22;50545;56.064;26.178;2023-11-21T01:55:16;-4.50;99.90
64226;DHT22;50545;56.064;26.178;2023-11-21T01:57:55;-4.40;99.90
64226;DHT22;50545;56.064;26.178;2023-11-21T02:00:24;-4.50;99.90
64226;DHT22;50545;56.064;26.178;2023-11-21T02:02:52;-4.50;99.90
64226;DHT22;50545;56.064;26.178;2023-11-21T02:05:20;-4.50;99.90
64226;DHT22;50545;56.064;26.178;2023-11-21T02:07:48;-4.50;99.90
64226;DHT22;50545;56.064;26.178;2023-11-21T02:10:16;-4.50;99.90
64226;DHT22;50545;56.064;26.178;2023-11-21T02:12:45;-4.60;99.90
64226;DHT22;50545;56.064;26.178;2023-11-21T02:15:13;-4.60;99.90
64226;DHT22;50545;56.064;26.178;2023-11-21T02:17:54;-4.60;99.90
64226;DHT22;50545;56.064;26.178;2023-11-21T02:20:22;-4.60;99.90
64226;DHT22;50545;56.064;26.178;2023-11-21T02:22:56;-4.60;99.90
64226;DHT22;50545;56.064;26.178;2023-11-21T02:25:29;-4.60;99.90
64226;DHT22;50545;56.064;26.178;2023-11-21T02:28:01;-4.70;99.90
64226;DHT22;50545;56.064;26.178;2023-11-21T02:30:30;-4.60;99.90
64226;DHT22;50545;56.064;26.178;2023-11-21T02:33:01;-4.60;99.90
64226;DHT22;50545;56.064;26.178;2023-11-21T02:35:29;-4.60;99.90
64226;DHT22;50545;56.064;26.178;2023-11-21T02:37:59;-4.60;99.90
64226;DHT22;50545;56.064;26.178;2023-11-21T02:40:26;-4.60;99.90
64226;DHT22;50545;56.064;26.178;2023-11-21T02:42:54;-4.70;99.90
64226;DHT22;50545;56.064;26.178;2023-11-21T02:45:22;-4.70;99.90
64226;DHT22;50545;56.064;26.178;2023-11-21T02:47:51;-4.70;99.90
64226;DHT22;50545;56.064;26.178;2023-11-21T02:50:25;-4.60;99.90
64226;DHT22;50545;56.064;26.178;2023-11-21T02:52:53;-4.70;99.90
64226;DHT22;50545;56.064;26.178;2023-11-21T02:55:21;-4.70;99.90
64226;DHT22;50545;56.064;26.178;2023-11-21T02:57:49;-4.70;99.90
64226;DHT22;50545;56.064;26.178;2023-11-21T03:00:17;-4.70;99.90
64226;DHT22;50545;56.064;26.178;2023-11-21T03:02:45;-4.70;99.90
64226;DHT22;50545;56.064;26.178;2023-11-21T03:05:14;-4.70;99.90
64226;DHT22;50545;56.064;26.178;2023-11-21T03:07:42;-4.70;99.90
64226;DHT22;50545;56.064;26.178;2023-11-21T03:10:10;-4.70;99.90
64226;DHT22;50545;56.064;26.178;2023-11-21T03:12:41;-4.70;99.90
64226;DHT22;50545;56.064;26.178;2023-11-21T03:15:09;-4.70;99.90
64226;DHT22;50545;56.064;26.178;2023-11-21T03:17:37;-4.70;99.90
64226;DHT22;50545;56.064;26.178;2023-11-21T03:20:05;-4.70;99.90
64226;DHT22;50545;56.064;26.178;2023-11-21T03:22:33;-4.80;99.90
64226;DHT22;50545;56.064;26.178;2023-11-21T03:25:01;-4.80;99.90
64226;DHT22;50545;56.064;26.178;2023-11-21T03:27:28;-4.80;99.90
64226;DHT22;50545;56.064;26.178;2023-11-21T03:29:55;-4.80;99.90
64226;DHT22;50545;56.064;26.178;2023-11-21T03:32:23;-4.80;99.90
64226;DHT22;50545;56.064;26.178;2023-11-21T03:34:57;-4.80;99.90
64226;DHT22;50545;56.064;26.178;2023-11-21T03:37:26;-4.80;99.90
64226;DHT22;50545;56.064;26.178;2023-11-21T03:39:56;-4.80;99.90
64226;DHT22;50545;56.064;26.178;2023-11-21T03:42:24;-4.80;99.90
64226;DHT22;50545;56.064;26.178;2023-11-21T03:44:54;-4.80;99.90
64226;DHT22;50545;56.064;26.178;2023-11-21T03:47:22;-4.80;99.90
64226;DHT22;50545;56.064;26.178;2023-11-21T03:49:49;-4.80;99.90
64226;DHT22;50545;56.064;26.178;2023-11-21T03:52:17;-4.80;99.90
64226;DHT22;50545;56.064;26.178;2023-11-21T03:54:45;-4.80;99.90
64226;DHT22;50545;56.064;26.178;2023-11-21T03:57:12;-4.80;99.90
64226;DHT22;50545;56.064;26.178;2023-11-21T03:59:40;-4.90;99.90
64226;DHT22;50545;56.064;26.178;2023-11-21T04:02:09;-4.80;99.90
64226;DHT22;50545;56.064;26.178;2023-11-21T04:04:36;-4.80;99.90
64226;DHT22;50545;56.064;26.178;2023-11-21T04:07:04;-4.80;99.90
64226;DHT22;50545;56.064;26.178;2023-11-21T04:09:32;-4.80;99.90
64226;DHT22;50545;56.064;26.178;2023-11-21T04:12:00;-4.80;99.90
64226;DHT22;50545;56.064;26.178;2023-11-21T04:14:27;-4.80;99.90
64226;DHT22;50545;56.064;26.178;2023-11-21T04:16:55;-4.80;99.90
64226;DHT22;50545;56.064;26.178;2023-11-21T04:19:22;-4.70;99.90
64226;DHT22;50545;56.064;26.178;2023-11-21T04:21:50;-4.70;99.90
64226;DHT22;50545;56.064;26.178;2023-11-21T04:24:17;-4.70;99.90
64226;DHT22;50545;56.064;26.178;2023-11-21T04:26:45;-4.70;99.90
64226;DHT22;50545;56.064;26.178;2023-11-21T04:29:12;-4.70;99.90
64226;DHT22;50545;56.064;26.178;2023-11-21T04:31:40;-4.60;99.90
64226;DHT22;50545;56.064;26.178;2023-11-21T04:34:08;-4.60;99.90
64226;DHT22;50545;56.064;26.178;2023-11-21T04:36:36;-4.60;99.90
64226;DHT22;50545;56.064;26.178;2023-11-21T04:39:04;-4.60;99.90
64226;DHT22;50545;56.064;26.178;2023-11-21T04:41:31;-4.60;99.90
64226;DHT22;50545;56.064;26.178;2023-11-21T04:43:59;-4.60;99.90
64226;DHT22;50545;56.064;26.178;2023-11-21T04:46:29;-4.60;99.90
64226;DHT22;50545;56.064;26.178;2023-11-21T04:48:57;-4.60;99.90
64226;DHT22;50545;56.064;26.178;2023-11-21T04:51:25;-4.60;99.90
64226;DHT22;50545;56.064;26.178;2023-11-21T04:53:52;-4.60;99.90
64226;DHT22;50545;56.064;26.178;2023-11-21T04:56:20;-4.60;99.90
64226;DHT22;50545;56.064;26.178;2023-11-21T04:58:47;-4.50;99.90
64226;DHT22;50545;56.064;26.178;2023-11-21T05:01:15;-4.50;99.90
64226;DHT22;50545;56.064;26.178;2023-11-21T05:03:42;-4.50;99.90
64226;DHT22;50545;56.064;26.178;2023-11-21T05:06:10;-4.50;99.90
64226;DHT22;50545;56.064;26.178;2023-11-21T05:08:38;-4.50;99.90
64226;DHT22;50545;56.064;26.178;2023-11-21T05:11:05;-4.50;99.90
64226;DHT22;50545;56.064;26.178;2023-11-21T05:13:34;-4.50;99.90
64226;DHT22;50545;56.064;26.178;2023-11-21T05:16:03;-4.50;99.90
64226;DHT22;50545;56.064;26.178;2023-11-21T05:18:34;-4.40;99.90
64226;DHT22;50545;56.064;26.178;2023-11-21T05:21:02;-4.40;99.90
64226;DHT22;50545;56.064;26.178;2023-11-21T05:23:29;-4.40;99.90
64226;DHT22;50545;56.064;26.178;2023-11-21T05:25:57;-4.40;99.90
64226;DHT22;50545;56.064;26.178;2023-11-21T05:28:24;-4.40;99.90
64226;DHT22;50545;56.064;26.178;2023-11-21T05:30:52;-4.40;99.90
64226;DHT22;50545;56.064;26.178;2023-11-21T05:33:40;-4.40;99.90
64226;DHT22;50545;56.064;26.178;2023-11-21T05:36:08;-4.40;99.90
64226;DHT22;50545;56.064;26.178;2023-11-21T05:38:37;-4.40;99.90
64226;DHT22;50545;56.064;26.178;2023-11-21T05:41:04;-4.50;99.90
64226;DHT22;50545;56.064;26.178;2023-11-21T05:43:32;-4.50;99.90
64226;DHT22;50545;56.064;26.178;2023-11-21T05:46:02;-4.60;99.90
64226;DHT22;50545;56.064;26.178;2023-11-21T05:48:30;-4.70;99.90
64226;DHT22;50545;56.064;26.178;2023-11-21T05:50:57;-4.70;99.90
64226;DHT22;50545;56.064;26.178;2023-11-21T05:53:26;-4.80;99.90
64226;DHT22;50545;56.064;26.178;2023-11-21T05:55:53;-4.80;99.90
64226;DHT22;50545;56.064;26.178;2023-11-21T05:58:21;-4.90;99.90
64226;DHT22;50545;56.064;26.178;2023-11-21T06:00:48;-4.90;99.90
64226;DHT22;50545;56.064;26.178;2023-11-21T06:03:16;-5.00;99.90
64226;DHT22;50545;56.064;26.178;2023-11-21T06:05:44;-5.00;99.90
64226;DHT22;50545;56.064;26.178;2023-11-21T06:08:12;-5.10;99.90
64226;DHT22;50545;56.064;26.178;2023-11-21T06:10:40;-5.20;99.90
64226;DHT22;50545;56.064;26.178;2023-11-21T06:13:07;-5.20;99.90
64226;DHT22;50545;56.064;26.178;2023-11-21T06:15:35;-5.30;99.90
64226;DHT22;50545;56.064;26.178;2023-11-21T06:18:02;-5.30;99.90
64226;DHT22;50545;56.064;26.178;2023-11-21T06:20:30;-5.40;99.90
64226;DHT22;50545;56.064;26.178;2023-11-21T06:22:57;-5.40;99.90
64226;DHT22;50545;56.064;26.178;2023-11-21T06:25:25;-5.50;99.90
64226;DHT22;50545;56.064;26.178;2023-11-21T06:27:53;-5.50;99.90
64226;DHT22;50545;56.064;26.178;2023-11-21T06:30:21;-5.60;99.90
64226;DHT22;50545;56.064;26.178;2023-11-21T06:32:49;-5.60;99.90
64226;DHT22;50545;56.064;26.178;2023-11-21T06:35:18;-5.70;99.90
64226;DHT22;50545;56.064;26.178;2023-11-21T06:37:46;-5.80;99.90
64226;DHT22;50545;56.064;26.178;2023-11-21T06:40:17;-5.80;99.90
64226;DHT22;50545;56.064;26.178;2023-11-21T06:42:48;-5.80;99.90
64226;DHT22;50545;56.064;26.178;2023-11-21T06:45:16;-5.80;99.90
64226;DHT22;50545;56.064;26.178;2023-11-21T06:47:44;-5.80;99.90
64226;DHT22;50545;56.064;26.178;2023-11-21T06:50:13;-5.80;99.90
64226;DHT22;50545;56.064;26.178;2023-11-21T06:52:40;-5.80;99.90
64226;DHT22;50545;56.064;26.178;2023-11-21T06:55:08;-5.70;99.90
64226;DHT22;50545;56.064;26.178;2023-11-21T06:57:36;-5.80;99.90
64226;DHT22;50545;56.064;26.178;2023-11-21T07:00:04;-5.80;99.90
64226;DHT22;50545;56.064;26.178;2023-11-21T07:02:33;-5.80;99.90
64226;DHT22;50545;56.064;26.178;2023-11-21T07:05:01;-5.80;99.90
64226;DHT22;50545;56.064;26.178;2023-11-21T07:07:28;-5.80;99.90
64226;DHT22;50545;56.064;26.178;2023-11-21T07:09:56;-5.80;99.90
64226;DHT22;50545;56.064;26.178;2023-11-21T07:12:23;-5.80;99.90
64226;DHT22;50545;56.064;26.178;2023-11-21T07:14:52;-5.70;99.90
64226;DHT22;50545;56.064;26.178;2023-11-21T07:17:20;-5.70;99.90
64226;DHT22;50545;56.064;26.178;2023-11-21T07:19:50;-5.70;99.90
64226;DHT22;50545;56.064;26.178;2023-11-21T07:22:18;-5.70;99.90
64226;DHT22;50545;56.064;26.178;2023-11-21T07:24:49;-5.70;99.90
64226;DHT22;50545;56.064;26.178;2023-11-21T07:27:18;-5.70;99.90
64226;DHT22;50545;56.064;26.178;2023-11-21T07:29:45;-5.70;99.90
64226;DHT22;50545;56.064;26.178;2023-11-21T07:32:13;-5.60;99.90
64226;DHT22;50545;56.064;26.178;2023-11-21T07:34:42;-5.60;99.90
64226;DHT22;50545;56.064;26.178;2023-11-21T07:37:09;-5.60;99.90
64226;DHT22;50545;56.064;26.178;2023-11-21T07:39:36;-5.60;99.90
64226;DHT22;50545;56.064;26.178;2023-11-21T07:42:04;-5.60;99.90
64226;DHT22;50545;56.064;26.178;2023-11-21T07:44:31;-5.50;99.90
64226;DHT22;50545;56.064;26.178;2023-11-21T07:46:59;-5.50;99.90
64226;DHT22;50545;56.064;26.178;2023-11-21T07:49:26;-5.50;99.90
64226;DHT22;50545;56.064;26.178;2023-11-21T07:51:54;-5.50;99.90
64226;DHT22;50545;56.064;26.178;2023-11-21T07:54:21;-5.40;99.90
64226;DHT22;50545;56.064;26.178;2023-11-21T07:56:49;-5.40;99.90
64226;DHT22;50545;56.064;26.178;2023-11-21T07:59:16;-5.40;99.90
64226;DHT22;50545;56.064;26.178;2023-11-21T08:01:45;-5.40;99.90
64226;DHT22;50545;56.064;26.178;2023-11-21T08:04:13;-5.40;99.90
64226;DHT22;50545;56.064;26.178;2023-11-21T08:06:40;-5.30;99.90
64226;DHT22;50545;56.064;26.178;2023-11-21T08:09:09;-5.30;99.90
64226;DHT22;50545;56.064;26.178;2023-11-21T08:11:36;-5.30;99.90
64226;DHT22;50545;56.064;26.178;2023-11-21T08:14:05;-5.30;99.90
64226;DHT22;50545;56.064;26.178;2023-11-21T08:16:33;-5.20;99.90
64226;DHT22;50545;56.064;26.178;2023-11-21T08:19:01;-5.20;99.90
64226;DHT22;50545;56.064;26.178;2023-11-21T08:21:28;-5.20;99.90
64226;DHT22;50545;56.064;26.178;2023-11-21T08:23:56;-5.10;99.90
64226;DHT22;50545;56.064;26.178;2023-11-21T08:26:24;-5.10;99.90
64226;DHT22;50545;56.064;26.178;2023-11-21T08:28:51;-5.10;99.90
64226;DHT22;50545;56.064;26.178;2023-11-21T08:31:28;-5.10;99.90
64226;DHT22;50545;56.064;26.178;2023-11-21T08:33:56;-5.00;99.90
64226;DHT22;50545;56.064;26.178;2023-11-21T08:36:23;-5.00;99.90
64226;DHT22;50545;56.064;26.178;2023-11-21T08:38:52;-5.00;99.90
64226;DHT22;50545;56.064;26.178;2023-11-21T08:41:20;-5.00;99.90
64226;DHT22;50545;56.064;26.178;2023-11-21T08:43:50;-5.00;99.90
64226;DHT22;50545;56.064;26.178;2023-11-21T08:46:18;-4.90;99.90
64226;DHT22;50545;56.064;26.178;2023-11-21T08:48:47;-4.90;99.90
64226;DHT22;50545;56.064;26.178;2023-11-21T08:51:14;-4.90;99.90
64226;DHT22;50545;56.064;26.178;2023-11-21T08:53:43;-4.80;99.90
64226;DHT22;50545;56.064;26.178;2023-11-21T08:56:14;-4.80;99.90
64226;DHT22;50545;56.064;26.178;2023-11-21T08:58:41;-4.80;99.90
64226;DHT22;50545;56.064;26.178;2023-11-21T09:01:09;-4.80;99.90
64226;DHT22;50545;56.064;26.178;2023-11-21T09:03:36;-4.70;99.90
64226;DHT22;50545;56.064;26.178;2023-11-21T09:06:05;-4.70;99.90
64226;DHT22;50545;56.064;26.178;2023-11-21T09:08:32;-4.70;99.90
64226;DHT22;50545;56.064;26.178;2023-11-21T09:11:00;-4.60;99.90
64226;DHT22;50545;56.064;26.178;2023-11-21T09:13:27;-4.60;99.90
64226;DHT22;50545;56.064;26.178;2023-11-21T09:15:55;-4.50;99.90
64226;DHT22;50545;56.064;26.178;2023-11-21T09:18:22;-4.50;99.90
64226;DHT22;50545;56.064;26.178;2023-11-21T09:20:50;-4.40;99.90
64226;DHT22;50545;56.064;26.178;2023-11-21T09:23:17;-4.40;99.90
64226;DHT22;50545;56.064;26.178;2023-11-21T09:25:44;-4.40;99.90
64226;DHT22;50545;56.064;26.178;2023-11-21T09:28:13;-4.30;99.90
64226;DHT22;50545;56.064;26.178;2023-11-21T09:30:41;-4.30;99.90
64226;DHT22;50545;56.064;26.178;2023-11-21T09:33:09;-4.30;99.90
64226;DHT22;50545;56.064;26.178;2023-11-21T09:35:38;-4.20;99.90
64226;DHT22;50545;56.064;26.178;2023-11-21T09:38:06;-4.20;99.90
64226;DHT22;50545;56.064;26.178;2023-11-21T09:40:38;-4.10;99.90
64226;DHT22;50545;56.064;26.178;2023-11-21T09:43:15;-4.00;99.90
64226;DHT22;50545;56.064;26.178;2023-11-21T09:45:47;-4.00;99.90
64226;DHT22;50545;56.064;26.178;2023-11-21T09:48:17;-3.90;99.90
64226;DHT22;50545;56.064;26.178;2023-11-21T09:50:48;-4.00;99.90
64226;DHT22;50545;56.064;26.178;2023-11-21T09:53:20;-3.90;99.90
64226;DHT22;50545;56.064;26.178;2023-11-21T09:55:51;-3.90;99.90
64226;DHT22;50545;56.064;26.178;2023-11-21T09:58:20;-3.90;99.90
64226;DHT22;50545;56.064;26.178;2023-11-21T10:00:51;-3.90;99.90
64226;DHT22;50545;56.064;26.178;2023-11-21T10:03:18;-3.80;99.90
64226;DHT22;50545;56.064;26.178;2023-11-21T10:05:50;-3.80;99.90
64226;DHT22;50545;56.064;26.178;2023-11-21T10:08:18;-3.80;99.90
64226;DHT22;50545;56.064;26.178;2023-11-21T10:10:49;-3.70;99.90
64226;DHT22;50545;56.064;26.178;2023-11-21T10:13:19;-3.70;99.90
64226;DHT22;50545;56.064;26.178;2023-11-21T10:15:51;-3.70;99.90
64226;DHT22;50545;56.064;26.178;2023-11-21T10:18:19;-3.60;99.90
64226;DHT22;50545;56.064;26.178;2023-11-21T10:20:46;-3.60;99.90
64226;DHT22;50545;56.064;26.178;2023-11-21T10:23:21;-3.60;99.90
64226;DHT22;50545;56.064;26.178;2023-11-21T10:25:54;-3.60;99.90
64226;DHT22;50545;56.064;26.178;2023-11-21T10:28:26;-3.60;99.90
64226;DHT22;50545;56.064;26.178;2023-11-21T10:30:53;-3.50;99.90
64226;DHT22;50545;56.064;26.178;2023-11-21T10:33:27;-3.50;99.90
64226;DHT22;50545;56.064;26.178;2023-11-21T10:35:56;-3.50;99.90
64226;DHT22;50545;56.064;26.178;2023-11-21T10:38:23;-3.50;99.90
64226;DHT22;50545;56.064;26.178;2023-11-21T10:40:53;-3.60;99.90
64226;DHT22;50545;56.064;26.178;2023-11-21T10:43:25;-3.70;99.90
64226;DHT22;50545;56.064;26.178;2023-11-21T10:45:52;-3.70;99.90
64226;DHT22;50545;56.064;26.178;2023-11-21T10:48:25;-3.80;99.90
64226;DHT22;50545;56.064;26.178;2023-11-21T10:50:52;-3.80;99.90
64226;DHT22;50545;56.064;26.178;2023-11-21T10:53:21;-3.90;99.90
64226;DHT22;50545;56.064;26.178;2023-11-21T10:55:49;-3.80;99.90
64226;DHT22;50545;56.064;26.178;2023-11-21T10:58:17;-3.80;99.90
64226;DHT22;50545;56.064;26.178;2023-11-21T11:00:45;-3.90;99.90
64226;DHT22;50545;56.064;26.178;2023-11-21T11:03:14;-3.80;99.90
64226;DHT22;50545;56.064;26.178;2023-11-21T11:05:44;-3.80;99.90
64226;DHT22;50545;56.064;26.178;2023-11-21T11:08:21;-3.80;99.90
64226;DHT22;50545;56.064;26.178;2023-11-21T11:10:54;-3.90;99.90
64226;DHT22;50545;56.064;26.178;2023-11-21T11:13:23;-3.90;99.90
64226;DHT22;50545;56.064;26.178;2023-11-21T11:15:58;-4.00;99.90
64226;DHT22;50545;56.064;26.178;2023-11-21T11:18:34;-4.00;99.90
64226;DHT22;50545;56.064;26.178;2023-11-21T11:21:11;-4.00;99.90
64226;DHT22;50545;56.064;26.178;2023-11-21T11:34:39;-3.70;99.90
64226;DHT22;50545;56.064;26.178;2023-11-21T11:37:09;-3.60;99.90
64226;DHT22;50545;56.064;26.178;2023-11-21T11:39:38;-3.60;99.90
64226;DHT22;50545;56.064;26.178;2023-11-21T11:42:15;-3.50;99.90
64226;DHT22;50545;56.064;26.178;2023-11-21T11:47:15;-3.40;99.90
64226;DHT22;50545;56.064;26.178;2023-11-21T11:50:05;-3.40;99.90
64226;DHT22;50545;56.064;26.178;2023-11-21T11:52:53;-3.30;99.90
64226;DHT22;50545;56.064;26.178;2023-11-21T11:55:23;-3.30;99.90
64226;DHT22;50545;56.064;26.178;2023-11-21T11:57:54;-3.20;99.90
64226;DHT22;50545;56.064;26.178;2023-11-21T12:02:55;-3.20;99.90
64226;DHT22;50545;56.064;26.178;2023-11-21T12:05:27;-3.20;99.90
64226;DHT22;50545;56.064;26.178;2023-11-21T12:08:04;-3.10;99.90
64226;DHT22;50545;56.064;26.178;2023-11-21T12:10:36;-3.10;99.90
64226;DHT22;50545;56.064;26.178;2023-11-21T12:13:06;-3.10;99.90
64226;DHT22;50545;56.064;26.178;2023-11-21T12:15:38;-3.10;99.90
64226;DHT22;50545;56.064;26.178;2023-11-21T12:18:07;-3.10;99.90
64226;DHT22;50545;56.064;26.178;2023-11-21T12:20:34;-3.20;99.90
64226;DHT22;50545;56.064;26.178;2023-11-21T12:23:09;-3.20;99.90
64226;DHT22;50545;56.064;26.178;2023-11-21T12:25:38;-3.20;99.90
64226;DHT22;50545;56.064;26.178;2023-11-21T12:28:10;-3.20;99.90
64226;DHT22;50545;56.064;26.178;2023-11-21T12:30:39;-3.20;99.90
64226;DHT22;50545;56.064;26.178;2023-11-21T12:33:07;-3.30;99.90
64226;DHT22;50545;56.064;26.178;2023-11-21T12:35:37;-3.30;99.90
64226;DHT22;50545;56.064;26.178;2023-11-21T12:38:05;-3.30;99.90
64226;DHT22;50545;56.064;26.178;2023-11-21T12:40:33;-3.30;99.90
64226;DHT22;50545;56.064;26.178;2023-11-21T12:43:01;-3.30;99.90
64226;DHT22;50545;56.064;26.178;2023-11-21T12:45:32;-3.30;99.90
64226;DHT22;50545;56.064;26.178;2023-11-21T12:48:04;-3.30;99.90
64226;DHT22;50545;56.064;26.178;2023-11-21T12:50:36;-3.30;99.90
64226;DHT22;50545;56.064;26.178;2023-11-21T12:53:10;-3.30;99.90
64226;DHT22;50545;56.064;26.178;2023-11-21T12:55:39;-3.40;99.90
64226;DHT22;50545;56.064;26.178;2023-11-21T12:58:10;-3.40;99.90
64226;DHT22;50545;56.064;26.178;2023-11-21T13:00:40;-3.50;99.90
64226;DHT22;50545;56.064;26.178;2023-11-21T13:03:11;-3.50;99.90
64226;DHT22;50545;56.064;26.178;2023-11-21T13:05:41;-3.50;99.90
64226;DHT22;50545;56.064;26.178;2023-11-21T13:08:15;-3.60;99.90
64226;DHT22;50545;56.064;26.178;2023-11-21T13:10:50;-3.60;99.90
64226;DHT22;50545;56.064;26.178;2023-11-21T13:13:18;-3.70;99.90
64226;DHT22;50545;56.064;26.178;2023-11-21T13:15:52;-3.80;99.90
64226;DHT22;50545;56.064;26.178;2023-11-21T13:18:21;-3.80;99.90
64226;DHT22;50545;56.064;26.178;2023-11-21T13:20:49;-3.90;99.90
64226;DHT22;50545;56.064;26.178;2023-11-21T13:23:17;-3.90;99.90
64226;DHT22;50545;56.064;26.178;2023-11-21T13:25:45;-3.90;99.90
64226;DHT22;50545;56.064;26.178;2023-11-21T13:28:24;-4.00;99.90
64226;DHT22;50545;56.064;26.178;2023-11-21T13:30:54;-4.00;99.90
64226;DHT22;50545;56.064;26.178;2023-11-21T13:33:21;-4.00;99.90
64226;DHT22;50545;56.064;26.178;2023-11-21T13:35:54;-4.00;99.90
64226;DHT22;50545;56.064;26.178;2023-11-21T13:38:24;-4.10;99.90
64226;DHT22;50545;56.064;26.178;2023-11-21T13:40:53;-4.10;99.90
64226;DHT22;50545;56.064;26.178;2023-11-21T13:43:23;-4.20;99.90
64226;DHT22;50545;56.064;26.178;2023-11-21T13:45:53;-4.20;99.90
64226;DHT22;50545;56.064;26.178;2023-11-21T13:48:44;-4.20;99.90
64226;DHT22;50545;56.064;26.178;2023-11-21T13:51:18;-4.30;99.90
64226;DHT22;50545;56.064;26.178;2023-11-21T13:53:48;-4.30;99.90
64226;DHT22;50545;56.064;26.178;2023-11-21T13:56:18;-4.40;99.90
64226;DHT22;50545;56.064;26.178;2023-11-21T13:58:53;-4.40;99.90
64226;DHT22;50545;56.064;26.178;2023-11-21T14:01:26;-4.50;99.90
64226;DHT22;50545;56.064;26.178;2023-11-21T14:04:01;-4.50;99.90
64226;DHT22;50545;56.064;26.178;2023-11-21T14:06:36;-4.60;99.90
64226;DHT22;50545;56.064;26.178;2023-11-21T14:09:16;-4.70;99.90
64226;DHT22;50545;56.064;26.178;2023-11-21T14:11:54;-4.80;99.90
64226;DHT22;50545;56.064;26.178;2023-11-21T14:14:27;-4.80;99.90
64226;DHT22;50545;56.064;26.178;2023-11-21T14:16:57;-4.90;99.90
64226;DHT22;50545;56.064;26.178;2023-11-21T14:19:26;-4.90;99.90
64226;DHT22;50545;56.064;26.178;2023-11-21T14:22:00;-4.90;99.90
64226;DHT22;50545;56.064;26.178;2023-11-21T14:24:28;-4.90;99.90
64226;DHT22;50545;56.064;26.178;2023-11-21T14:26:56;-4.90;99.90
64226;DHT22;50545;56.064;26.178;2023-11-21T14:29:24;-4.90;99.90
64226;DHT22;50545;56.064;26.178;2023-11-21T14:31:51;-4.90;99.90
64226;DHT22;50545;56.064;26.178;2023-11-21T14:34:23;-4.90;99.90
64226;DHT22;50545;56.064;26.178;2023-11-21T14:36:51;-4.90;99.90
64226;DHT22;50545;56.064;26.178;2023-11-21T14:39:19;-4.90;99.90
64226;DHT22;50545;56.064;26.178;2023-11-21T14:42:02;-4.90;99.90
64226;DHT22;50545;56.064;26.178;2023-11-21T14:44:30;-4.90;99.90
64226;DHT22;50545;56.064;26.178;2023-11-21T14:47:02;-4.90;99.90
64226;DHT22;50545;56.064;26.178;2023-11-21T14:49:34;-4.90;99.90
64226;DHT22;50545;56.064;26.178;2023-11-21T14:52:19;-4.90;99.90
64226;DHT22;50545;56.064;26.178;2023-11-21T14:55:05;-4.90;99.90
64226;DHT22;50545;56.064;26.178;2023-11-21T14:57:52;-4.90;99.90
64226;DHT22;50545;56.064;26.178;2023-11-21T15:00:21;-4.90;99.90
64226;DHT22;50545;56.064;26.178;2023-11-21T15:03:11;-4.90;99.90
64226;DHT22;50545;56.064;26.178;2023-11-21T15:05:52;-5.00;99.90
64226;DHT22;50545;56.064;26.178;2023-11-21T15:08:20;-5.00;99.90
64226;DHT22;50545;56.064;26.178;2023-11-21T15:10:53;-5.00;99.90
64226;DHT22;50545;56.064;26.178;2023-11-21T15:13:22;-5.00;99.90
64226;DHT22;50545;56.064;26.178;2023-11-21T15:15:51;-5.00;99.90
64226;DHT22;50545;56.064;26.178;2023-11-21T15:18:21;-5.00;99.90
64226;DHT22;50545;56.064;26.178;2023-11-21T15:20:49;-4.90;99.90
64226;DHT22;50545;56.064;26.178;2023-11-21T15:23:17;-4.90;99.90
64226;DHT22;50545;56.064;26.178;2023-11-21T15:25:46;-4.90;99.90
64226;DHT22;50545;56.064;26.178;2023-11-21T15:28:14;-4.90;99.90
64226;DHT22;50545;56.064;26.178;2023-11-21T15:30:41;-4.90;99.90
64226;DHT22;50545;56.064;26.178;2023-11-21T15:33:09;-4.80;99.90
64226;DHT22;50545;56.064;26.178;2023-11-21T15:35:36;-4.80;99.90
64226;DHT22;50545;56.064;26.178;2023-11-21T15:38:06;-4.90;99.90
64226;DHT22;50545;56.064;26.178;2023-11-21T15:40:35;-4.80;99.90
64226;DHT22;50545;56.064;26.178;2023-11-21T15:43:02;-4.80;99.90
64226;DHT22;50545;56.064;26.178;2023-11-21T15:45:30;-4.80;99.90